Time;durP1;ratioP1;P1;durP2;ratioP2;P2;SDS_P1;SDS_P2;PMS_P1;PMS_P2;Temp;Humidity;BMP_temperature;BMP_pressure;BME280_temperature;BME280_humidity;BME280_pressure;Samples;Min_cycle;Max_cycle;Signal;HPM_P1;HPM_P2
2023/10/24 00:01:27;;;;;;;;;;;18.90;51.20;;;;;;5048653;28;19928;-65
2023/10/24 00:03:54;;;;;;;;;;;18.90;51.20;;;;;;5050082;28;19921;-66
2023/10/24 00:06:21;;;;;;;;;;;18.90;51.20;;;;;;5047606;28;20366;-67
2023/10/24 00:08:48;;;;;;;;;;;18.90;51.20;;;;;;5050051;28;19925;-65
2023/10/24 00:11:15;;;;;;;;;;;18.90;51.20;;;;;;5050189;28;19921;-67
2023/10/24 00:13:41;;;;;;;;;;;18.90;51.20;;;;;;5050295;28;19974;-61
2023/10/24 00:16:08;;;;;;;;;;;18.90;51.20;;;;;;5050384;28;20264;-67
2023/10/24 00:18:37;;;;;;;;;;;18.90;51.20;;;;;;5047681;28;19920;-67
2023/10/24 00:21:03;;;;;;;;;;;18.90;51.20;;;;;;5047553;28;19921;-66
2023/10/24 00:23:31;;;;;;;;;;;18.90;51.20;;;;;;5049286;28;19924;-67
2023/10/24 00:25:58;;;;;;;;;;;18.90;51.20;;;;;;5048801;28;19933;-67
2023/10/24 00:28:24;;;;;;;;;;;18.90;51.20;;;;;;5048869;28;20140;-67
2023/10/24 00:30:51;;;;;;;;;;;18.90;51.20;;;;;;5048116;28;19920;-67
2023/10/24 00:33:18;;;;;;;;;;;18.90;51.20;;;;;;5048789;28;19974;-65
2023/10/24 00:35:46;;;;;;;;;;;18.90;51.20;;;;;;5047267;28;20292;-64
2023/10/24 00:38:13;;;;;;;;;;;18.90;51.20;;;;;;5041590;28;19921;-67
2023/10/24 00:40:39;;;;;;;;;;;18.90;51.10;;;;;;5049313;28;19967;-66
2023/10/24 00:43:06;;;;;;;;;;;18.90;51.20;;;;;;5048427;28;19937;-65
2023/10/24 00:45:33;;;;;;;;;;;18.90;51.20;;;;;;5050110;28;19921;-67
2023/10/24 00:48:00;;;;;;;;;;;18.90;51.20;;;;;;5049251;28;20528;-67
2023/10/24 00:50:27;;;;;;;;;;;18.90;51.20;;;;;;5049249;28;19966;-65
2023/10/24 00:52:55;;;;;;;;;;;18.90;51.20;;;;;;5048290;28;19928;-67
2023/10/24 00:55:22;;;;;;;;;;;18.90;51.20;;;;;;5049473;28;19920;-68
2023/10/24 00:57:49;;;;;;;;;;;18.90;51.20;;;;;;5044310;28;19929;-68
2023/10/24 01:00:16;;;;;;;;;;;18.90;51.20;;;;;;5050436;28;19929;-68
2023/10/24 01:02:42;;;;;;;;;;;18.90;51.20;;;;;;5048670;28;20300;-66
2023/10/24 01:05:09;;;;;;;;;;;18.90;51.20;;;;;;5048250;28;19944;-68
2023/10/24 01:07:36;;;;;;;;;;;18.90;51.20;;;;;;5046370;28;20203;-65
2023/10/24 01:10:04;;;;;;;;;;;18.90;51.20;;;;;;5045704;28;19962;-65
2023/10/24 01:12:31;;;;;;;;;;;18.90;51.20;;;;;;5049058;28;19921;-68
2023/10/24 01:14:57;;;;;;;;;;;18.90;51.20;;;;;;5048558;28;19967;-67
2023/10/24 01:17:24;;;;;;;;;;;18.90;51.20;;;;;;5050586;28;19921;-65
2023/10/24 01:19:50;;;;;;;;;;;18.90;51.20;;;;;;5050090;28;19925;-68
2023/10/24 01:22:19;;;;;;;;;;;18.90;51.20;;;;;;5048067;28;19943;-67
2023/10/24 01:24:45;;;;;;;;;;;18.90;51.20;;;;;;5046350;28;19921;-67
2023/10/24 01:27:12;;;;;;;;;;;18.90;51.20;;;;;;5045113;28;19921;-68
2023/10/24 01:29:39;;;;;;;;;;;18.90;51.20;;;;;;5048767;28;19978;-64
2023/10/24 01:32:06;;;;;;;;;;;18.90;51.20;;;;;;5048600;28;19927;-68
2023/10/24 01:34:33;;;;;;;;;;;18.90;51.30;;;;;;5047858;28;19921;-67
2023/10/24 01:37:00;;;;;;;;;;;18.90;51.20;;;;;;5047948;28;19967;-68
2023/10/24 01:39:28;;;;;;;;;;;18.90;51.30;;;;;;5048726;28;20034;-64
2023/10/24 01:41:54;;;;;;;;;;;18.90;51.30;;;;;;5042193;28;19922;-67
2023/10/24 01:44:21;;;;;;;;;;;18.90;51.30;;;;;;5046246;28;19925;-66
2023/10/24 01:46:49;;;;;;;;;;;18.90;51.30;;;;;;5049228;28;19921;-64
2023/10/24 01:49:16;;;;;;;;;;;18.90;51.30;;;;;;5049079;28;19921;-68
2023/10/24 01:51:42;;;;;;;;;;;18.80;51.20;;;;;;5043779;28;19935;-66
2023/10/24 01:54:09;;;;;;;;;;;18.90;51.30;;;;;;5049347;28;19941;-65
2023/10/24 01:56:37;;;;;;;;;;;18.90;51.30;;;;;;5048694;28;19927;-68
2023/10/24 01:59:06;;;;;;;;;;;18.90;51.30;;;;;;5046230;28;19951;-65
2023/10/24 02:01:33;;;;;;;;;;;18.90;51.30;;;;;;5047327;28;19921;-65
2023/10/24 02:04:00;;;;;;;;;;;18.90;51.30;;;;;;5046517;28;19921;-67
2023/10/24 02:06:26;;;;;;;;;;;18.90;51.30;;;;;;5048653;28;19975;-68
2023/10/24 02:08:53;;;;;;;;;;;18.90;51.30;;;;;;5048218;28;19925;-66
2023/10/24 02:11:20;;;;;;;;;;;18.90;51.40;;;;;;5052633;28;19951;-68
2023/10/24 02:13:48;;;;;;;;;;;18.90;51.30;;;;;;5050468;28;19925;-63
2023/10/24 02:16:15;;;;;;;;;;;18.80;51.20;;;;;;5060357;28;19928;-67
2023/10/24 02:18:41;;;;;;;;;;;18.90;51.40;;;;;;5053384;28;19986;-67
2023/10/24 02:21:08;;;;;;;;;;;18.90;51.40;;;;;;5051170;28;19929;-68
2023/10/24 02:23:37;;;;;;;;;;;18.90;51.40;;;;;;5049765;28;19921;-66
2023/10/24 02:26:03;;;;;;;;;;;18.90;51.40;;;;;;5050903;28;20320;-66
2023/10/24 02:28:30;;;;;;;;;;;18.90;51.40;;;;;;5051379;28;19987;-68
2023/10/24 02:31:01;;;;;;;;;;;18.90;51.40;;;;;;5048670;28;20278;-64
2023/10/24 02:33:28;;;;;;;;;;;18.90;51.40;;;;;;5052637;28;19929;-67
2023/10/24 02:35:55;;;;;;;;;;;18.90;51.40;;;;;;5050325;28;20337;-68
2023/10/24 02:38:21;;;;;;;;;;;18.90;51.40;;;;;;5051687;28;19921;-68
2023/10/24 02:40:55;;;;;;;;;;;18.90;51.40;;;;;;5051282;28;20305;-66
2023/10/24 02:43:22;;;;;;;;;;;18.90;51.40;;;;;;5050281;28;19924;-68
2023/10/24 02:45:49;;;;;;;;;;;18.90;51.50;;;;;;5053211;28;19991;-66
2023/10/24 02:48:17;;;;;;;;;;;18.90;51.50;;;;;;5044689;28;19925;-65
2023/10/24 02:50:44;;;;;;;;;;;18.80;51.30;;;;;;5051863;28;19921;-67
2023/10/24 02:53:10;;;;;;;;;;;18.90;51.40;;;;;;5052000;28;19976;-69
2023/10/24 02:55:37;;;;;;;;;;;18.90;51.40;;;;;;5052785;28;19930;-69
2023/10/24 02:58:04;;;;;;;;;;;18.90;51.40;;;;;;5051736;28;19932;-66
2023/10/24 03:00:31;;;;;;;;;;;18.80;51.40;;;;;;5051948;28;19921;-69
2023/10/24 03:02:57;;;;;;;;;;;18.80;51.40;;;;;;5051368;28;19924;-67
2023/10/24 03:05:26;;;;;;;;;;;18.80;51.40;;;;;;5049994;28;19921;-65
2023/10/24 03:07:53;;;;;;;;;;;18.90;51.50;;;;;;5051228;28;19925;-66
2023/10/24 03:10:20;;;;;;;;;;;18.80;51.40;;;;;;5048024;28;19925;-64
2023/10/24 03:12:46;;;;;;;;;;;18.90;51.50;;;;;;5050566;28;20424;-66
2023/10/24 03:15:13;;;;;;;;;;;18.90;51.50;;;;;;5051017;28;19921;-67
2023/10/24 03:17:40;;;;;;;;;;;18.90;51.50;;;;;;5050971;28;20005;-63
2023/10/24 03:20:08;;;;;;;;;;;18.90;51.50;;;;;;5049881;28;20250;-66
2023/10/24 03:22:36;;;;;;;;;;;18.90;51.50;;;;;;5046966;28;19956;-67
2023/10/24 03:25:03;;;;;;;;;;;18.80;51.40;;;;;;5049766;28;19924;-67
2023/10/24 03:27:29;;;;;;;;;;;18.80;51.40;;;;;;5050554;28;19920;-67
2023/10/24 03:29:56;;;;;;;;;;;18.90;51.50;;;;;;5051124;28;19921;-65
2023/10/24 03:32:23;;;;;;;;;;;18.90;51.50;;;;;;5052012;28;19921;-67
2023/10/24 03:34:50;;;;;;;;;;;18.90;51.50;;;;;;5050171;28;19955;-67
2023/10/24 03:37:17;;;;;;;;;;;18.90;51.50;;;;;;5050266;28;19921;-66
2023/10/24 03:39:46;;;;;;;;;;;18.80;51.50;;;;;;5050923;28;19925;-63
2023/10/24 03:42:14;;;;;;;;;;;18.80;51.50;;;;;;5052073;28;19921;-67
2023/10/24 03:44:40;;;;;;;;;;;18.80;51.50;;;;;;5047996;28;19932;-65
2023/10/24 03:47:07;;;;;;;;;;;18.90;51.60;;;;;;5050846;28;19921;-66
2023/10/24 03:49:34;;;;;;;;;;;18.90;51.60;;;;;;5050466;28;19924;-68
2023/10/24 03:52:01;;;;;;;;;;;18.90;51.60;;;;;;5046942;28;19974;-66
2023/10/24 03:54:29;;;;;;;;;;;18.90;51.60;;;;;;5051933;28;20390;-68
2023/10/24 03:56:58;;;;;;;;;;;18.90;51.60;;;;;;5045211;28;19921;-68
2023/10/24 03:59:24;;;;;;;;;;;18.90;51.70;;;;;;5049956;28;19927;-68
2023/10/24 04:01:51;;;;;;;;;;;18.80;52.20;;;;;;5050736;28;19936;-66
2023/10/24 04:04:18;;;;;;;;;;;18.90;51.70;;;;;;5051115;28;19920;-67
2023/10/24 04:06:45;;;;;;;;;;;18.90;51.70;;;;;;5051380;28;19928;-67
2023/10/24 04:09:12;;;;;;;;;;;18.90;51.70;;;;;;5047695;28;20397;-69
2023/10/24 04:11:39;;;;;;;;;;;18.90;51.70;;;;;;5047871;28;19920;-66
2023/10/24 04:14:08;;;;;;;;;;;18.90;51.70;;;;;;5049444;28;20181;-66
2023/10/24 04:16:35;;;;;;;;;;;18.90;51.70;;;;;;5051037;28;19994;-67
2023/10/24 04:19:02;;;;;;;;;;;18.90;51.80;;;;;;5050590;28;19921;-67
2023/10/24 04:21:28;;;;;;;;;;;18.90;51.80;;;;;;5050770;28;19928;-67
2023/10/24 04:23:55;;;;;;;;;;;18.90;51.80;;;;;;5050411;28;19950;-67
2023/10/24 04:26:22;;;;;;;;;;;18.90;51.80;;;;;;5047990;28;19963;-67
2023/10/24 04:28:49;;;;;;;;;;;18.90;51.80;;;;;;5050095;28;19927;-67
2023/10/24 04:31:17;;;;;;;;;;;18.90;51.80;;;;;;5050288;28;19967;-67
2023/10/24 04:33:44;;;;;;;;;;;18.90;51.80;;;;;;5050815;28;19920;-68
2023/10/24 04:36:11;;;;;;;;;;;18.90;51.80;;;;;;5032478;28;19924;-68
2023/10/24 04:38:38;;;;;;;;;;;18.90;51.80;;;;;;5048217;28;19925;-67
2023/10/24 04:41:05;;;;;;;;;;;18.90;51.80;;;;;;5048142;28;19920;-67
2023/10/24 04:43:31;;;;;;;;;;;18.80;51.70;;;;;;5049119;28;19982;-66
2023/10/24 04:45:59;;;;;;;;;;;18.80;51.70;;;;;;5038041;28;19928;-67
2023/10/24 04:48:27;;;;;;;;;;;18.90;51.90;;;;;;5046547;28;19971;-66
2023/10/24 04:50:54;;;;;;;;;;;18.80;51.80;;;;;;5049051;28;19925;-66
2023/10/24 04:53:21;;;;;;;;;;;18.90;51.80;;;;;;5049254;28;19925;-68
2023/10/24 04:55:47;;;;;;;;;;;18.90;51.80;;;;;;5047068;28;19970;-66
2023/10/24 04:58:14;;;;;;;;;;;18.90;52.40;;;;;;5048067;28;19921;-71
2023/10/24 05:00:41;;;;;;;;;;;18.90;51.80;;;;;;5046723;28;20359;-67
2023/10/24 05:03:08;;;;;;;;;;;18.90;51.90;;;;;;5050346;28;19920;-67
2023/10/24 05:05:36;;;;;;;;;;;18.80;51.80;;;;;;5048899;28;19924;-68
2023/10/24 05:08:07;;;;;;;;;;;18.90;51.90;;;;;;5048742;28;19925;-67
2023/10/24 05:10:34;;;;;;;;;;;18.90;51.90;;;;;;5047118;28;19924;-67
2023/10/24 05:13:01;;;;;;;;;;;18.90;51.90;;;;;;5049110;28;20448;-68
2023/10/24 05:15:28;;;;;;;;;;;18.90;51.90;;;;;;5047393;28;19978;-64
2023/10/24 05:17:55;;;;;;;;;;;18.90;51.90;;;;;;5049525;28;19929;-68
2023/10/24 05:20:22;;;;;;;;;;;18.90;51.90;;;;;;5047640;28;20008;-67
2023/10/24 05:22:50;;;;;;;;;;;18.90;51.90;;;;;;5046026;28;19931;-65
2023/10/24 05:25:17;;;;;;;;;;;18.90;51.90;;;;;;5048444;28;19921;-67
2023/10/24 05:27:43;;;;;;;;;;;18.90;51.90;;;;;;5047673;28;19990;-64
2023/10/24 05:30:11;;;;;;;;;;;18.90;51.90;;;;;;5048426;28;19974;-68
2023/10/24 05:32:37;;;;;;;;;;;18.90;51.90;;;;;;5048409;28;19920;-69
2023/10/24 05:35:05;;;;;;;;;;;18.90;51.90;;;;;;5048978;28;19925;-66
2023/10/24 05:37:31;;;;;;;;;;;18.90;51.90;;;;;;5046947;28;19932;-67
2023/10/24 05:40:00;;;;;;;;;;;18.90;51.90;;;;;;5038218;28;19932;-67
2023/10/24 05:42:26;;;;;;;;;;;18.90;51.90;;;;;;5048235;28;19921;-66
2023/10/24 05:44:53;;;;;;;;;;;18.90;51.90;;;;;;5048478;28;19936;-64
2023/10/24 05:47:20;;;;;;;;;;;18.90;51.90;;;;;;5047065;28;19921;-67
2023/10/24 05:49:47;;;;;;;;;;;18.90;51.90;;;;;;5047118;28;19921;-65
2023/10/24 05:52:14;;;;;;;;;;;18.90;51.90;;;;;;5052361;28;19979;-67
2023/10/24 05:54:40;;;;;;;;;;;18.90;51.90;;;;;;5049552;28;20165;-66
2023/10/24 05:57:08;;;;;;;;;;;18.90;52.00;;;;;;5049744;28;19931;-67
2023/10/24 05:59:35;;;;;;;;;;;18.90;52.00;;;;;;5035587;28;19994;-67
2023/10/24 06:02:02;;;;;;;;;;;18.90;52.00;;;;;;5051509;28;19948;-68
2023/10/24 06:04:29;;;;;;;;;;;18.90;52.00;;;;;;5048418;28;19944;-67
2023/10/24 06:06:55;;;;;;;;;;;18.90;52.00;;;;;;5045990;28;20372;-68
2023/10/24 06:09:22;;;;;;;;;;;18.90;52.00;;;;;;5056967;28;19928;-67
2023/10/24 06:11:49;;;;;;;;;;;18.90;52.00;;;;;;5050953;28;19921;-64
2023/10/24 06:14:17;;;;;;;;;;;18.90;52.00;;;;;;5045763;28;19928;-68
2023/10/24 06:16:44;;;;;;;;;;;18.90;52.00;;;;;;5045095;28;19976;-66
2023/10/24 06:19:10;;;;;;;;;;;18.90;52.00;;;;;;5051895;28;19921;-68
2023/10/24 06:21:37;;;;;;;;;;;18.90;52.00;;;;;;5052168;28;20310;-67
2023/10/24 06:24:05;;;;;;;;;;;18.90;52.10;;;;;;5044611;28;20023;-65
2023/10/24 06:26:32;;;;;;;;;;;18.90;52.10;;;;;;5047074;28;20076;-67
2023/10/24 06:28:58;;;;;;;;;;;18.90;52.00;;;;;;5048070;28;19925;-60
2023/10/24 06:31:28;;;;;;;;;;;18.90;52.10;;;;;;5051754;28;19970;-60
2023/10/24 06:33:55;;;;;;;;;;;18.80;52.10;;;;;;5047102;28;19968;-60
2023/10/24 06:36:22;;;;;;;;;;;18.80;52.20;;;;;;5045838;28;19931;-60
2023/10/24 06:38:48;;;;;;;;;;;18.80;52.30;;;;;;5053341;28;19958;-57
2023/10/24 06:41:16;;;;;;;;;;;18.70;52.50;;;;;;5050885;28;19931;-60
2023/10/24 06:43:43;;;;;;;;;;;18.60;52.60;;;;;;5051890;28;19927;-60
2023/10/24 06:46:10;;;;;;;;;;;18.50;52.70;;;;;;5051552;28;19928;-60
2023/10/24 06:48:38;;;;;;;;;;;18.40;52.90;;;;;;5052461;28;19948;-61
2023/10/24 06:51:05;;;;;;;;;;;18.30;53.00;;;;;;5051594;28;19971;-67
2023/10/24 06:53:32;;;;;;;;;;;18.20;53.20;;;;;;5049530;28;20011;-66
2023/10/24 06:56:00;;;;;;;;;;;18.20;53.20;;;;;;5050441;28;19925;-67
2023/10/24 06:58:26;;;;;;;;;;;18.10;53.00;;;;;;5052305;28;19927;-72
2023/10/24 07:00:53;;;;;;;;;;;18.10;53.00;;;;;;5051722;28;19924;-70
2023/10/24 07:03:20;;;;;;;;;;;18.20;52.90;;;;;;5049428;28;19933;-67
2023/10/24 07:05:51;;;;;;;;;;;18.20;53.00;;;;;;5049640;28;19920;-74
2023/10/24 07:08:18;;;;;;;;;;;18.20;53.00;;;;;;5048087;28;20271;-76
2023/10/24 07:10:45;;;;;;;;;;;18.20;53.10;;;;;;5048767;28;19955;-71
2023/10/24 07:13:12;;;;;;;;;;;18.30;53.10;;;;;;5056049;28;19955;-73
2023/10/24 07:15:39;;;;;;;;;;;18.30;53.10;;;;;;5050754;28;19924;-70
2023/10/24 07:18:06;;;;;;;;;;;18.30;53.10;;;;;;5050458;28;19925;-71
2023/10/24 07:20:35;;;;;;;;;;;18.40;53.20;;;;;;5049935;28;19921;-72
2023/10/24 07:23:03;;;;;;;;;;;18.40;53.20;;;;;;5049507;28;19924;-73
2023/10/24 07:25:30;;;;;;;;;;;18.50;53.30;;;;;;5049739;28;19932;-75
2023/10/24 07:27:57;;;;;;;;;;;18.50;53.30;;;;;;5047941;28;20362;-73
2023/10/24 07:30:24;;;;;;;;;;;18.50;53.20;;;;;;5044545;28;19932;-73
2023/10/24 07:32:53;;;;;;;;;;;18.50;53.20;;;;;;5045338;28;19931;-72
2023/10/24 07:35:20;;;;;;;;;;;18.60;53.30;;;;;;5046680;28;20019;-75
2023/10/24 07:37:47;;;;;;;;;;;18.60;53.30;;;;;;5049125;28;19948;-65
2023/10/24 07:40:15;;;;;;;;;;;18.60;53.30;;;;;;5047154;28;19920;-73
2023/10/24 07:42:42;;;;;;;;;;;18.60;53.20;;;;;;5049394;28;19951;-71
2023/10/24 07:45:11;;;;;;;;;;;18.70;53.30;;;;;;5044363;28;19935;-75
2023/10/24 07:47:37;;;;;;;;;;;18.70;53.90;;;;;;5044937;28;19921;-69
2023/10/24 07:50:04;;;;;;;;;;;18.70;53.30;;;;;;5047760;28;19970;-71
2023/10/24 07:52:31;;;;;;;;;;;18.70;53.30;;;;;;5042382;28;19928;-76
2023/10/24 07:54:58;;;;;;;;;;;18.70;53.30;;;;;;5048407;28;19929;-75
2023/10/24 07:57:26;;;;;;;;;;;18.70;53.30;;;;;;5046868;28;19944;-71
2023/10/24 07:59:53;;;;;;;;;;;18.80;53.40;;;;;;5048077;28;19925;-68
2023/10/24 08:02:20;;;;;;;;;;;18.80;53.40;;;;;;5050041;28;19998;-69
2023/10/24 08:04:46;;;;;;;;;;;18.80;53.30;;;;;;5051546;28;19921;-64
2023/10/24 08:07:13;;;;;;;;;;;18.80;53.30;;;;;;5050377;28;19983;-70
2023/10/24 08:09:40;;;;;;;;;;;18.80;53.30;;;;;;5043364;28;19921;-70
2023/10/24 08:12:07;;;;;;;;;;;18.80;53.20;;;;;;5050530;28;19979;-68
2023/10/24 08:14:35;;;;;;;;;;;18.80;53.20;;;;;;5050579;28;19956;-66
2023/10/24 08:17:03;;;;;;;;;;;18.80;53.20;;;;;;5049861;28;19929;-69
2023/10/24 08:19:30;;;;;;;;;;;18.80;53.20;;;;;;5041887;28;20025;-70
2023/10/24 08:21:56;;;;;;;;;;;18.80;53.10;;;;;;5040854;28;19929;-70
2023/10/24 08:24:23;;;;;;;;;;;18.90;53.20;;;;;;5044265;28;20002;-70
2023/10/24 08:26:50;;;;;;;;;;;18.80;53.10;;;;;;5049914;28;20273;-66
2023/10/24 08:29:17;;;;;;;;;;;18.90;53.70;;;;;;5048289;28;20024;-71
2023/10/24 08:31:44;;;;;;;;;;;18.90;53.10;;;;;;5050724;28;20305;-65
2023/10/24 08:34:12;;;;;;;;;;;18.90;53.10;;;;;;5049440;28;19971;-70
2023/10/24 08:36:38;;;;;;;;;;;18.90;53.10;;;;;;5051638;28;19920;-69
2023/10/24 08:39:06;;;;;;;;;;;18.90;53.10;;;;;;5049597;28;19920;-69
2023/10/24 08:41:33;;;;;;;;;;;18.90;53.10;;;;;;5043148;28;19987;-70
2023/10/24 08:44:00;;;;;;;;;;;18.90;53.10;;;;;;5039722;28;19974;-67
2023/10/24 08:46:27;;;;;;;;;;;18.90;53.10;;;;;;5049600;28;19921;-70
2023/10/24 08:48:55;;;;;;;;;;;18.90;53.10;;;;;;5044271;28;19932;-70
2023/10/24 08:51:22;;;;;;;;;;;18.90;53.10;;;;;;5047002;28;20354;-70
2023/10/24 08:53:48;;;;;;;;;;;18.90;53.00;;;;;;5049587;28;19928;-64
2023/10/24 08:56:15;;;;;;;;;;;18.90;53.00;;;;;;5049432;28;19921;-70
2023/10/24 08:58:42;;;;;;;;;;;18.90;53.10;;;;;;5046423;28;19932;-66
2023/10/24 09:01:09;;;;;;;;;;;18.90;53.00;;;;;;5063015;28;19991;-70
2023/10/24 09:03:35;;;;;;;;;;;18.90;53.10;;;;;;5039857;28;20170;-70
2023/10/24 09:06:03;;;;;;;;;;;18.90;53.10;;;;;;5042437;28;19921;-75
2023/10/24 09:08:30;;;;;;;;;;;18.90;53.10;;;;;;5047766;28;19921;-71
2023/10/24 09:10:57;;;;;;;;;;;18.90;53.20;;;;;;5045845;28;19921;-69
2023/10/24 09:13:25;;;;;;;;;;;18.90;53.30;;;;;;5045842;28;19986;-70
2023/10/24 09:16:07;;;;;;;;;;;18.90;53.40;;;;;;5046232;28;19921;-67
2023/10/24 09:18:35;;;;;;;;;;;19.00;53.50;;;;;;5048114;28;19929;-72
2023/10/24 09:21:01;;;;;;;;;;;19.00;53.50;;;;;;5045673;28;20608;-71
2023/10/24 09:23:29;;;;;;;;;;;19.00;53.50;;;;;;5045685;28;19925;-68
2023/10/24 09:25:56;;;;;;;;;;;19.00;53.50;;;;;;5044834;28;19925;-71
2023/10/24 09:28:24;;;;;;;;;;;19.00;53.60;;;;;;5042076;28;19931;-70
2023/10/24 09:30:51;;;;;;;;;;;19.00;53.60;;;;;;5047574;28;19928;-67
2023/10/24 09:33:18;;;;;;;;;;;19.00;53.60;;;;;;5047181;28;19970;-73
2023/10/24 09:35:44;;;;;;;;;;;19.00;53.60;;;;;;5045649;28;19921;-66
2023/10/24 09:38:11;;;;;;;;;;;19.00;53.60;;;;;;5042196;28;19928;-68
2023/10/24 09:40:40;;;;;;;;;;;19.00;53.60;;;;;;5040679;28;19921;-71
2023/10/24 09:43:10;;;;;;;;;;;19.10;53.70;;;;;;5041290;28;20051;-71
2023/10/24 09:45:36;;;;;;;;;;;19.10;53.70;;;;;;5040322;28;19966;-65
2023/10/24 09:48:03;;;;;;;;;;;19.10;53.70;;;;;;5041501;28;19967;-70
2023/10/24 09:50:30;;;;;;;;;;;19.10;53.70;;;;;;5047981;28;19968;-74
2023/10/24 09:52:57;;;;;;;;;;;19.10;53.70;;;;;;5046610;28;19920;-69
2023/10/24 09:55:24;;;;;;;;;;;19.10;53.80;;;;;;5048712;28;19939;-72
2023/10/24 09:57:52;;;;;;;;;;;19.10;53.80;;;;;;5037602;28;19985;-70
2023/10/24 10:00:18;;;;;;;;;;;19.10;53.80;;;;;;5046080;28;19982;-73
2023/10/24 10:02:46;;;;;;;;;;;19.10;53.80;;;;;;5045553;28;19921;-74
2023/10/24 10:05:13;;;;;;;;;;;19.10;53.80;;;;;;5042865;28;19924;-78
2023/10/24 10:07:40;;;;;;;;;;;19.10;53.70;;;;;;5049082;28;19921;-69
2023/10/24 10:10:07;;;;;;;;;;;19.10;53.80;;;;;;5040426;28;19995;-73
2023/10/24 10:12:34;;;;;;;;;;;19.10;53.80;;;;;;5046498;28;19925;-72
2023/10/24 10:15:18;;;;;;;;;;;19.10;53.80;;;;;;5048863;28;19933;-75
2023/10/24 10:17:47;;;;;;;;;;;19.10;53.80;;;;;;5048286;28;20019;-74
2023/10/24 10:20:31;;;;;;;;;;;19.10;53.80;;;;;;5046035;28;19986;-74
2023/10/24 10:23:02;;;;;;;;;;;19.10;53.80;;;;;;5043365;28;20351;-71
2023/10/24 10:25:53;;;;;;;;;;;19.20;53.90;;;;;;5045094;28;19921;-67
2023/10/24 10:28:25;;;;;;;;;;;19.20;53.90;;;;;;5029193;28;20011;-70
2023/10/24 10:30:56;;;;;;;;;;;19.20;53.90;;;;;;5049942;28;19921;-72
2023/10/24 10:33:23;;;;;;;;;;;19.20;53.90;;;;;;5050186;28;19920;-66
2023/10/24 10:35:50;;;;;;;;;;;19.20;53.90;;;;;;5049993;28;19920;-65
2023/10/24 10:38:35;;;;;;;;;;;19.20;53.90;;;;;;5044225;28;19940;-68
2023/10/24 10:41:14;;;;;;;;;;;19.20;54.00;;;;;;5049832;28;19928;-66
2023/10/24 10:43:41;;;;;;;;;;;19.20;53.90;;;;;;5043673;28;19987;-68
2023/10/24 10:46:19;;;;;;;;;;;19.20;54.00;;;;;;5043073;28;19929;-70
2023/10/24 10:48:48;;;;;;;;;;;19.20;54.00;;;;;;5048904;28;19960;-70
2023/10/24 10:51:15;;;;;;;;;;;19.20;54.00;;;;;;5049986;28;19974;-68
2023/10/24 10:53:42;;;;;;;;;;;19.20;54.10;;;;;;5048675;28;20011;-68
2023/10/24 10:56:17;;;;;;;;;;;19.30;54.10;;;;;;5049943;28;19960;-71
2023/10/24 10:59:14;;;;;;;;;;;19.20;54.20;;;;;;5047955;28;19956;-64
2023/10/24 11:01:46;;;;;;;;;;;19.30;54.20;;;;;;4987646;28;19928;-63
2023/10/24 11:04:13;;;;;;;;;;;19.30;54.30;;;;;;5038198;28;19921;-69
2023/10/24 11:06:41;;;;;;;;;;;19.20;54.60;;;;;;5043374;28;19921;-73
2023/10/24 11:09:08;;;;;;;;;;;19.20;54.50;;;;;;5049870;28;19925;-68
2023/10/24 11:11:37;;;;;;;;;;;19.20;54.70;;;;;;5046483;28;19956;-67
2023/10/24 11:14:14;;;;;;;;;;;19.20;54.80;;;;;;5045027;28;20002;-65
2023/10/24 11:16:43;;;;;;;;;;;19.20;54.80;;;;;;5044522;28;19999;-69
2023/10/24 11:19:09;;;;;;;;;;;19.20;54.80;;;;;;5040863;28;20473;-67
2023/10/24 11:21:36;;;;;;;;;;;19.10;54.80;;;;;;5042200;28;19924;-66
2023/10/24 11:24:03;;;;;;;;;;;19.10;54.80;;;;;;5050334;28;19927;-68
2023/10/24 11:26:30;;;;;;;;;;;19.10;54.70;;;;;;5046223;28;19967;-68
2023/10/24 11:28:57;;;;;;;;;;;19.10;54.80;;;;;;5049120;28;19925;-72
2023/10/24 11:31:24;;;;;;;;;;;19.10;54.80;;;;;;5049382;28;20008;-70
2023/10/24 11:33:52;;;;;;;;;;;19.10;54.80;;;;;;5050053;28;19970;-66
2023/10/24 11:36:18;;;;;;;;;;;19.10;54.90;;;;;;5049466;28;19932;-66
2023/10/24 11:38:46;;;;;;;;;;;19.10;54.80;;;;;;5044154;28;19980;-69
2023/10/24 11:41:12;;;;;;;;;;;19.10;54.80;;;;;;5047078;28;19997;-74
2023/10/24 11:43:39;;;;;;;;;;;19.10;54.70;;;;;;5048982;28;20436;-72
2023/10/24 11:46:06;;;;;;;;;;;19.10;54.70;;;;;;5049931;28;19920;-70
2023/10/24 11:48:33;;;;;;;;;;;19.10;54.60;;;;;;5049405;28;19978;-74
2023/10/24 11:51:03;;;;;;;;;;;19.10;54.60;;;;;;5046638;28;19951;-75
2023/10/24 11:53:30;;;;;;;;;;;19.10;54.50;;;;;;5048698;28;19928;-75
2023/10/24 11:55:57;;;;;;;;;;;19.10;54.50;;;;;;5050530;28;19968;-74
2023/10/24 11:58:24;;;;;;;;;;;19.20;54.50;;;;;;5050265;28;19971;-74
2023/10/24 12:00:50;;;;;;;;;;;19.20;54.50;;;;;;5050752;28;19963;-66
2023/10/24 12:03:17;;;;;;;;;;;19.20;54.50;;;;;;5045486;28;19932;-67
2023/10/24 12:05:54;;;;;;;;;;;19.20;54.50;;;;;;5050001;28;19978;-67
2023/10/24 12:08:25;;;;;;;;;;;19.20;54.50;;;;;;5050870;28;19924;-68
2023/10/24 12:10:53;;;;;;;;;;;19.20;54.60;;;;;;5045525;28;19921;-69
2023/10/24 12:13:19;;;;;;;;;;;19.20;54.50;;;;;;5048242;28;19920;-66
2023/10/24 12:15:47;;;;;;;;;;;19.20;54.60;;;;;;5050057;28;19933;-65
2023/10/24 12:18:14;;;;;;;;;;;19.20;54.60;;;;;;5042361;28;19921;-69
2023/10/24 12:20:40;;;;;;;;;;;19.30;54.60;;;;;;5049666;28;19920;-67
2023/10/24 12:23:07;;;;;;;;;;;19.20;54.60;;;;;;5046750;28;19932;-70
2023/10/24 12:25:35;;;;;;;;;;;19.30;54.70;;;;;;5049705;28;19967;-79
2023/10/24 12:28:02;;;;;;;;;;;19.30;54.70;;;;;;5048301;28;19927;-74
2023/10/24 12:30:29;;;;;;;;;;;19.30;54.70;;;;;;5060487;28;19979;-68
2023/10/24 12:32:57;;;;;;;;;;;19.30;54.70;;;;;;5048409;28;19999;-73
2023/10/24 12:35:24;;;;;;;;;;;19.30;54.70;;;;;;5046575;28;19960;-72
2023/10/24 12:37:51;;;;;;;;;;;19.30;54.70;;;;;;5048276;28;19967;-66
2023/10/24 12:40:18;;;;;;;;;;;19.30;54.70;;;;;;5050675;28;20312;-72
2023/10/24 12:42:46;;;;;;;;;;;19.30;54.70;;;;;;5050464;28;20012;-71
2023/10/24 12:45:13;;;;;;;;;;;19.30;54.70;;;;;;5047052;28;19928;-67
2023/10/24 12:47:39;;;;;;;;;;;19.30;54.70;;;;;;5048782;28;19924;-72
2023/10/24 12:50:07;;;;;;;;;;;19.40;54.80;;;;;;5046892;28;20014;-68
2023/10/24 12:52:34;;;;;;;;;;;19.30;54.70;;;;;;5046511;28;19920;-73
2023/10/24 12:55:01;;;;;;;;;;;19.40;54.80;;;;;;5048482;28;19925;-66
2023/10/24 12:57:28;;;;;;;;;;;19.30;54.70;;;;;;5043428;28;19932;-67
2023/10/24 12:59:56;;;;;;;;;;;19.40;55.40;;;;;;5045785;28;19925;-68
2023/10/24 13:02:22;;;;;;;;;;;19.40;54.80;;;;;;5043958;28;19943;-67
2023/10/24 13:04:49;;;;;;;;;;;19.40;54.80;;;;;;5048493;28;19921;-69
2023/10/24 13:07:16;;;;;;;;;;;19.40;54.80;;;;;;5041201;28;19921;-70
2023/10/24 13:09:43;;;;;;;;;;;19.40;54.80;;;;;;5040465;28;19921;-70
2023/10/24 13:12:10;;;;;;;;;;;19.40;54.80;;;;;;5047764;28;19991;-67
2023/10/24 13:14:36;;;;;;;;;;;19.40;54.70;;;;;;5045814;28;19925;-71
2023/10/24 13:17:04;;;;;;;;;;;19.40;54.70;;;;;;5044529;28;19921;-63
2023/10/24 13:19:31;;;;;;;;;;;19.40;54.70;;;;;;5053498;28;19966;-65
2023/10/24 13:21:58;;;;;;;;;;;19.40;54.70;;;;;;5049403;28;19928;-67
2023/10/24 13:24:26;;;;;;;;;;;19.40;54.70;;;;;;5048218;28;19979;-68
2023/10/24 13:26:52;;;;;;;;;;;19.40;54.70;;;;;;5042978;28;19974;-65
2023/10/24 13:29:20;;;;;;;;;;;19.40;54.70;;;;;;5046709;28;19921;-68
2023/10/24 13:31:47;;;;;;;;;;;19.40;54.70;;;;;;5049403;28;19925;-62
2023/10/24 13:34:15;;;;;;;;;;;19.40;54.60;;;;;;5048476;28;19966;-68
2023/10/24 13:36:43;;;;;;;;;;;19.40;54.60;;;;;;5058748;28;19921;-66
2023/10/24 13:39:10;;;;;;;;;;;19.40;54.70;;;;;;5043524;28;19925;-66
2023/10/24 13:41:37;;;;;;;;;;;19.40;54.70;;;;;;5047883;28;20234;-66
2023/10/24 13:44:04;;;;;;;;;;;19.40;54.70;;;;;;5048105;28;19928;-74
2023/10/24 13:46:32;;;;;;;;;;;19.40;54.70;;;;;;5046990;28;19990;-75
2023/10/24 13:48:59;;;;;;;;;;;19.40;54.70;;;;;;5047651;28;19921;-77
2023/10/24 13:51:27;;;;;;;;;;;19.40;54.70;;;;;;5048220;28;20039;-73
2023/10/24 13:53:54;;;;;;;;;;;19.40;54.60;;;;;;5049034;28;19920;-73
2023/10/24 13:56:21;;;;;;;;;;;19.40;54.70;;;;;;5049864;28;19932;-75
2023/10/24 13:58:47;;;;;;;;;;;19.40;54.60;;;;;;5047951;28;20388;-73
2023/10/24 14:01:14;;;;;;;;;;;19.40;54.60;;;;;;5040516;28;19933;-75
2023/10/24 14:03:41;;;;;;;;;;;19.40;54.70;;;;;;5045568;28;19925;-70
2023/10/24 14:06:08;;;;;;;;;;;19.40;54.70;;;;;;5050143;28;19975;-73
2023/10/24 14:08:36;;;;;;;;;;;19.40;54.60;;;;;;5050754;28;19921;-72
2023/10/24 14:11:03;;;;;;;;;;;19.40;54.60;;;;;;5052710;28;19928;-71
2023/10/24 14:13:30;;;;;;;;;;;19.40;54.60;;;;;;5048575;28;19935;-76
2023/10/24 14:15:56;;;;;;;;;;;19.40;55.20;;;;;;5051664;28;19924;-74
2023/10/24 14:18:23;;;;;;;;;;;19.40;54.60;;;;;;5051307;28;19932;-74